sensor_id;sensor_type;location;lat;lon;timestamp;temperature;humidity
42261;DHT22;27926;48.062;7.474;2024-01-11T00:02:08;-7.50;99.90
42261;DHT22;27926;48.062;7.474;2024-01-11T00:04:33;-7.60;99.90
42261;DHT22;27926;48.062;7.474;2024-01-11T00:06:57;-7.60;99.90
42261;DHT22;27926;48.062;7.474;2024-01-11T00:09:22;-7.60;99.90
42261;DHT22;27926;48.062;7.474;2024-01-11T00:11:47;-7.60;99.90
42261;DHT22;27926;48.062;7.474;2024-01-11T00:14:12;-7.60;99.90
42261;DHT22;27926;48.062;7.474;2024-01-11T00:16:38;-7.70;99.90
42261;DHT22;27926;48.062;7.474;2024-01-11T00:19:03;-7.70;99.90
42261;DHT22;27926;48.062;7.474;2024-01-11T00:21:27;-7.70;99.90
42261;DHT22;27926;48.062;7.474;2024-01-11T00:23:52;-7.80;99.90
42261;DHT22;27926;48.062;7.474;2024-01-11T00:26:16;-7.80;99.90
42261;DHT22;27926;48.062;7.474;2024-01-11T00:28:41;-7.80;99.90
42261;DHT22;27926;48.062;7.474;2024-01-11T00:31:05;-7.80;99.90
42261;DHT22;27926;48.062;7.474;2024-01-11T00:33:30;-7.80;99.90
42261;DHT22;27926;48.062;7.474;2024-01-11T00:35:55;-7.80;99.90
42261;DHT22;27926;48.062;7.474;2024-01-11T00:38:19;-7.80;99.90
42261;DHT22;27926;48.062;7.474;2024-01-11T00:40:44;-7.80;99.90
42261;DHT22;27926;48.062;7.474;2024-01-11T00:43:08;-7.90;99.90
42261;DHT22;27926;48.062;7.474;2024-01-11T00:45:33;-7.90;99.90
42261;DHT22;27926;48.062;7.474;2024-01-11T00:47:57;-7.90;99.90
42261;DHT22;27926;48.062;7.474;2024-01-11T00:50:22;-7.90;99.90
42261;DHT22;27926;48.062;7.474;2024-01-11T00:52:47;-7.90;99.90
42261;DHT22;27926;48.062;7.474;2024-01-11T00:55:11;-7.90;99.90
42261;DHT22;27926;48.062;7.474;2024-01-11T00:57:36;-7.90;99.90
42261;DHT22;27926;48.062;7.474;2024-01-11T01:00:00;-7.90;99.90
42261;DHT22;27926;48.062;7.474;2024-01-11T01:02:25;-7.90;99.90
42261;DHT22;27926;48.062;7.474;2024-01-11T01:04:49;-7.80;99.90
42261;DHT22;27926;48.062;7.474;2024-01-11T01:07:13;-7.80;99.90
42261;DHT22;27926;48.062;7.474;2024-01-11T01:09:38;-7.80;99.90
42261;DHT22;27926;48.062;7.474;2024-01-11T01:12:02;-7.80;99.90
42261;DHT22;27926;48.062;7.474;2024-01-11T01:14:27;-7.80;99.90
42261;DHT22;27926;48.062;7.474;2024-01-11T01:16:52;-7.80;99.90
42261;DHT22;27926;48.062;7.474;2024-01-11T01:19:16;-7.90;99.90
42261;DHT22;27926;48.062;7.474;2024-01-11T01:21:41;-7.90;99.90
42261;DHT22;27926;48.062;7.474;2024-01-11T01:24:05;-8.00;99.90
42261;DHT22;27926;48.062;7.474;2024-01-11T01:26:30;-8.00;99.90
42261;DHT22;27926;48.062;7.474;2024-01-11T01:28:54;-8.00;99.90
42261;DHT22;27926;48.062;7.474;2024-01-11T01:31:18;-8.00;99.90
42261;DHT22;27926;48.062;7.474;2024-01-11T01:33:43;-8.10;99.90
42261;DHT22;27926;48.062;7.474;2024-01-11T01:36:12;-8.10;99.90
42261;DHT22;27926;48.062;7.474;2024-01-11T01:38:36;-8.20;99.90
42261;DHT22;27926;48.062;7.474;2024-01-11T01:41:02;-8.20;99.90
42261;DHT22;27926;48.062;7.474;2024-01-11T01:43:26;-8.20;99.90
42261;DHT22;27926;48.062;7.474;2024-01-11T01:45:51;-8.20;99.90
42261;DHT22;27926;48.062;7.474;2024-01-11T01:48:16;-8.20;99.90
42261;DHT22;27926;48.062;7.474;2024-01-11T01:50:40;-8.30;99.90
42261;DHT22;27926;48.062;7.474;2024-01-11T01:53:06;-8.30;99.90
42261;DHT22;27926;48.062;7.474;2024-01-11T01:55:31;-8.30;99.90
42261;DHT22;27926;48.062;7.474;2024-01-11T01:57:56;-8.30;99.90
42261;DHT22;27926;48.062;7.474;2024-01-11T02:00:21;-8.30;99.90
42261;DHT22;27926;48.062;7.474;2024-01-11T02:02:46;-8.40;99.90
42261;DHT22;27926;48.062;7.474;2024-01-11T02:05:14;-8.40;99.90
42261;DHT22;27926;48.062;7.474;2024-01-11T02:07:40;-8.40;99.90
42261;DHT22;27926;48.062;7.474;2024-01-11T02:10:08;-8.40;99.90
42261;DHT22;27926;48.062;7.474;2024-01-11T02:12:34;-8.50;99.90
42261;DHT22;27926;48.062;7.474;2024-01-11T02:14:59;-8.50;99.90
42261;DHT22;27926;48.062;7.474;2024-01-11T02:17:24;-8.50;99.90
42261;DHT22;27926;48.062;7.474;2024-01-11T02:19:48;-8.60;99.90
42261;DHT22;27926;48.062;7.474;2024-01-11T02:22:15;-8.60;99.90
42261;DHT22;27926;48.062;7.474;2024-01-11T02:24:41;-8.60;99.90
42261;DHT22;27926;48.062;7.474;2024-01-11T02:27:06;-8.50;99.90
42261;DHT22;27926;48.062;7.474;2024-01-11T02:29:31;-8.50;99.90
42261;DHT22;27926;48.062;7.474;2024-01-11T02:31:56;-8.50;99.90
42261;DHT22;27926;48.062;7.474;2024-01-11T02:34:21;-8.50;99.90
42261;DHT22;27926;48.062;7.474;2024-01-11T02:36:45;-8.60;99.90
42261;DHT22;27926;48.062;7.474;2024-01-11T02:39:10;-8.60;99.90
42261;DHT22;27926;48.062;7.474;2024-01-11T02:41:35;-8.60;99.90
42261;DHT22;27926;48.062;7.474;2024-01-11T02:44:01;-8.60;99.90
42261;DHT22;27926;48.062;7.474;2024-01-11T02:46:25;-8.60;99.90
42261;DHT22;27926;48.062;7.474;2024-01-11T02:48:51;-8.60;99.90
42261;DHT22;27926;48.062;7.474;2024-01-11T02:51:16;-8.50;99.90
42261;DHT22;27926;48.062;7.474;2024-01-11T02:53:41;-8.50;99.90
42261;DHT22;27926;48.062;7.474;2024-01-11T02:56:05;-8.50;99.90
42261;DHT22;27926;48.062;7.474;2024-01-11T02:58:30;-8.50;99.90
42261;DHT22;27926;48.062;7.474;2024-01-11T03:00:54;-8.40;99.90
42261;DHT22;27926;48.062;7.474;2024-01-11T03:03:19;-8.30;99.90
42261;DHT22;27926;48.062;7.474;2024-01-11T03:05:43;-8.40;99.90
42261;DHT22;27926;48.062;7.474;2024-01-11T03:08:08;-8.40;99.90
42261;DHT22;27926;48.062;7.474;2024-01-11T03:10:32;-8.40;99.90
42261;DHT22;27926;48.062;7.474;2024-01-11T03:12:57;-8.50;99.90
42261;DHT22;27926;48.062;7.474;2024-01-11T03:15:22;-8.60;99.90
42261;DHT22;27926;48.062;7.474;2024-01-11T03:17:46;-8.60;99.90
42261;DHT22;27926;48.062;7.474;2024-01-11T03:20:11;-8.60;99.90
42261;DHT22;27926;48.062;7.474;2024-01-11T03:22:35;-8.70;99.90
42261;DHT22;27926;48.062;7.474;2024-01-11T03:25:00;-8.70;99.90
42261;DHT22;27926;48.062;7.474;2024-01-11T03:27:24;-8.80;99.90
42261;DHT22;27926;48.062;7.474;2024-01-11T03:29:49;-8.80;99.90
42261;DHT22;27926;48.062;7.474;2024-01-11T03:32:14;-8.90;99.90
42261;DHT22;27926;48.062;7.474;2024-01-11T03:34:38;-8.90;99.90
42261;DHT22;27926;48.062;7.474;2024-01-11T03:37:03;-8.90;99.90
42261;DHT22;27926;48.062;7.474;2024-01-11T03:39:27;-8.90;99.90
42261;DHT22;27926;48.062;7.474;2024-01-11T03:41:52;-8.90;99.90
42261;DHT22;27926;48.062;7.474;2024-01-11T03:44:17;-8.90;99.90
42261;DHT22;27926;48.062;7.474;2024-01-11T03:46:41;-8.90;99.90
42261;DHT22;27926;48.062;7.474;2024-01-11T03:49:06;-8.90;99.90
42261;DHT22;27926;48.062;7.474;2024-01-11T03:51:31;-8.90;99.90
42261;DHT22;27926;48.062;7.474;2024-01-11T03:53:56;-8.90;99.90
42261;DHT22;27926;48.062;7.474;2024-01-11T03:56:20;-8.90;99.90
42261;DHT22;27926;48.062;7.474;2024-01-11T03:58:45;-8.90;99.90
42261;DHT22;27926;48.062;7.474;2024-01-11T04:01:10;-8.90;99.90
42261;DHT22;27926;48.062;7.474;2024-01-11T04:03:34;-9.00;99.90
42261;DHT22;27926;48.062;7.474;2024-01-11T04:05:59;-9.00;99.90
42261;DHT22;27926;48.062;7.474;2024-01-11T04:08:23;-9.00;99.90
42261;DHT22;27926;48.062;7.474;2024-01-11T04:10:48;-9.00;99.90
42261;DHT22;27926;48.062;7.474;2024-01-11T04:13:12;-9.00;99.90
42261;DHT22;27926;48.062;7.474;2024-01-11T04:15:37;-8.30;99.90
42261;DHT22;27926;48.062;7.474;2024-01-11T04:18:01;-9.00;99.90
42261;DHT22;27926;48.062;7.474;2024-01-11T04:20:26;-7.50;99.90
42261;DHT22;27926;48.062;7.474;2024-01-11T04:22:50;-9.10;99.90
42261;DHT22;27926;48.062;7.474;2024-01-11T04:25:15;-9.00;99.90
42261;DHT22;27926;48.062;7.474;2024-01-11T04:27:40;-9.00;99.90
42261;DHT22;27926;48.062;7.474;2024-01-11T04:30:04;-9.00;99.90
42261;DHT22;27926;48.062;7.474;2024-01-11T04:32:29;-9.10;99.90
42261;DHT22;27926;48.062;7.474;2024-01-11T04:34:53;-9.00;99.90
42261;DHT22;27926;48.062;7.474;2024-01-11T04:37:18;-9.10;99.90
42261;DHT22;27926;48.062;7.474;2024-01-11T04:39:43;-9.10;99.90
42261;DHT22;27926;48.062;7.474;2024-01-11T04:42:07;-9.10;99.90
42261;DHT22;27926;48.062;7.474;2024-01-11T04:44:32;-9.10;99.90
42261;DHT22;27926;48.062;7.474;2024-01-11T04:46:56;-9.10;99.90
42261;DHT22;27926;48.062;7.474;2024-01-11T04:49:21;-9.10;99.90
42261;DHT22;27926;48.062;7.474;2024-01-11T04:51:45;-9.20;99.90
42261;DHT22;27926;48.062;7.474;2024-01-11T04:54:10;-9.20;99.90
42261;DHT22;27926;48.062;7.474;2024-01-11T04:56:34;-9.10;99.90
42261;DHT22;27926;48.062;7.474;2024-01-11T04:58:59;-9.10;99.90
42261;DHT22;27926;48.062;7.474;2024-01-11T05:01:23;-9.10;99.90
42261;DHT22;27926;48.062;7.474;2024-01-11T05:03:48;-9.20;99.90
42261;DHT22;27926;48.062;7.474;2024-01-11T05:06:21;-9.20;99.90
42261;DHT22;27926;48.062;7.474;2024-01-11T05:08:46;-9.20;99.90
42261;DHT22;27926;48.062;7.474;2024-01-11T05:11:20;-9.20;99.90
42261;DHT22;27926;48.062;7.474;2024-01-11T05:13:45;-9.20;99.90
42261;DHT22;27926;48.062;7.474;2024-01-11T05:18:42;-9.20;99.90
42261;DHT22;27926;48.062;7.474;2024-01-11T05:21:06;-9.30;99.90
42261;DHT22;27926;48.062;7.474;2024-01-11T05:23:31;-9.30;99.90
42261;DHT22;27926;48.062;7.474;2024-01-11T05:25:55;-9.30;99.90
42261;DHT22;27926;48.062;7.474;2024-01-11T05:28:20;-9.30;99.90
42261;DHT22;27926;48.062;7.474;2024-01-11T05:30:44;-9.30;99.90
42261;DHT22;27926;48.062;7.474;2024-01-11T05:33:09;-9.30;99.90
42261;DHT22;27926;48.062;7.474;2024-01-11T05:35:33;-9.40;99.90
42261;DHT22;27926;48.062;7.474;2024-01-11T05:37:58;-9.30;99.90
42261;DHT22;27926;48.062;7.474;2024-01-11T05:40:22;-9.40;99.90
42261;DHT22;27926;48.062;7.474;2024-01-11T05:42:47;-9.40;99.90
42261;DHT22;27926;48.062;7.474;2024-01-11T05:45:11;-9.40;99.90
42261;DHT22;27926;48.062;7.474;2024-01-11T05:47:36;-9.40;99.90
42261;DHT22;27926;48.062;7.474;2024-01-11T05:50:01;-9.40;99.90
42261;DHT22;27926;48.062;7.474;2024-01-11T05:52:26;-9.50;99.90
42261;DHT22;27926;48.062;7.474;2024-01-11T05:54:50;-9.50;99.90
42261;DHT22;27926;48.062;7.474;2024-01-11T05:57:15;-9.50;99.90
42261;DHT22;27926;48.062;7.474;2024-01-11T05:59:44;-9.50;99.90
42261;DHT22;27926;48.062;7.474;2024-01-11T06:02:09;-9.50;99.90
42261;DHT22;27926;48.062;7.474;2024-01-11T06:04:34;-9.60;99.90
42261;DHT22;27926;48.062;7.474;2024-01-11T06:06:59;-9.50;99.90
42261;DHT22;27926;48.062;7.474;2024-01-11T06:09:23;-9.50;99.90
42261;DHT22;27926;48.062;7.474;2024-01-11T06:11:48;-9.50;99.90
42261;DHT22;27926;48.062;7.474;2024-01-11T06:14:14;-9.50;99.90
42261;DHT22;27926;48.062;7.474;2024-01-11T06:16:40;-9.50;99.90
42261;DHT22;27926;48.062;7.474;2024-01-11T06:19:04;-9.50;99.90
42261;DHT22;27926;48.062;7.474;2024-01-11T06:21:29;-9.60;99.90
42261;DHT22;27926;48.062;7.474;2024-01-11T06:23:53;-9.50;99.90
42261;DHT22;27926;48.062;7.474;2024-01-11T06:26:18;-9.50;99.90
42261;DHT22;27926;48.062;7.474;2024-01-11T06:28:42;-9.50;99.90
42261;DHT22;27926;48.062;7.474;2024-01-11T06:31:08;-9.50;99.90
42261;DHT22;27926;48.062;7.474;2024-01-11T06:33:33;-9.50;99.90
42261;DHT22;27926;48.062;7.474;2024-01-11T06:36:01;-9.50;99.90
42261;DHT22;27926;48.062;7.474;2024-01-11T06:38:25;-9.60;99.90
42261;DHT22;27926;48.062;7.474;2024-01-11T06:40:50;-9.60;99.90
42261;DHT22;27926;48.062;7.474;2024-01-11T06:43:15;-9.60;99.90
42261;DHT22;27926;48.062;7.474;2024-01-11T06:45:40;-9.60;99.90
42261;DHT22;27926;48.062;7.474;2024-01-11T06:48:05;-9.70;99.90
42261;DHT22;27926;48.062;7.474;2024-01-11T06:50:29;-9.70;99.90
42261;DHT22;27926;48.062;7.474;2024-01-11T06:52:54;-9.70;99.90
42261;DHT22;27926;48.062;7.474;2024-01-11T06:55:18;-9.70;99.90
42261;DHT22;27926;48.062;7.474;2024-01-11T06:57:46;-9.70;99.90
42261;DHT22;27926;48.062;7.474;2024-01-11T07:00:10;-9.60;99.90
42261;DHT22;27926;48.062;7.474;2024-01-11T07:02:35;-9.70;99.90
42261;DHT22;27926;48.062;7.474;2024-01-11T07:04:59;-9.60;99.90
42261;DHT22;27926;48.062;7.474;2024-01-11T07:07:24;-9.60;99.90
42261;DHT22;27926;48.062;7.474;2024-01-11T07:09:48;-9.60;99.90
42261;DHT22;27926;48.062;7.474;2024-01-11T07:12:13;-9.70;99.90
42261;DHT22;27926;48.062;7.474;2024-01-11T07:14:38;-9.70;99.90
42261;DHT22;27926;48.062;7.474;2024-01-11T07:17:02;-9.70;99.90
42261;DHT22;27926;48.062;7.474;2024-01-11T07:19:28;-8.90;99.90
42261;DHT22;27926;48.062;7.474;2024-01-11T07:21:52;-9.60;99.90
42261;DHT22;27926;48.062;7.474;2024-01-11T07:24:17;-9.60;99.90
42261;DHT22;27926;48.062;7.474;2024-01-11T07:26:42;-9.70;99.90
42261;DHT22;27926;48.062;7.474;2024-01-11T07:29:07;-9.70;99.90
42261;DHT22;27926;48.062;7.474;2024-01-11T07:31:31;-9.70;99.90
42261;DHT22;27926;48.062;7.474;2024-01-11T07:33:56;-9.70;99.90
42261;DHT22;27926;48.062;7.474;2024-01-11T07:36:20;-9.70;99.90
42261;DHT22;27926;48.062;7.474;2024-01-11T07:38:45;-9.60;99.90
42261;DHT22;27926;48.062;7.474;2024-01-11T07:41:09;-9.60;99.90
42261;DHT22;27926;48.062;7.474;2024-01-11T07:43:34;-9.60;99.90
42261;DHT22;27926;48.062;7.474;2024-01-11T07:45:59;-9.50;99.90
42261;DHT22;27926;48.062;7.474;2024-01-11T07:48:24;-9.40;99.90
42261;DHT22;27926;48.062;7.474;2024-01-11T07:50:48;-9.40;99.90
42261;DHT22;27926;48.062;7.474;2024-01-11T07:53:13;-9.40;99.90
42261;DHT22;27926;48.062;7.474;2024-01-11T07:55:37;-9.30;99.90
42261;DHT22;27926;48.062;7.474;2024-01-11T07:58:02;-9.10;99.90
42261;DHT22;27926;48.062;7.474;2024-01-11T08:00:27;-9.00;99.90
42261;DHT22;27926;48.062;7.474;2024-01-11T08:02:53;-8.90;99.90
42261;DHT22;27926;48.062;7.474;2024-01-11T08:05:18;-8.80;99.90
42261;DHT22;27926;48.062;7.474;2024-01-11T08:07:43;-8.70;99.90
42261;DHT22;27926;48.062;7.474;2024-01-11T08:10:08;-7.80;99.90
42261;DHT22;27926;48.062;7.474;2024-01-11T08:12:33;-8.60;99.90
42261;DHT22;27926;48.062;7.474;2024-01-11T08:14:57;-8.40;99.90
42261;DHT22;27926;48.062;7.474;2024-01-11T08:17:22;-8.30;99.90
42261;DHT22;27926;48.062;7.474;2024-01-11T08:19:47;-8.20;99.90
42261;DHT22;27926;48.062;7.474;2024-01-11T08:22:12;-8.10;99.90
42261;DHT22;27926;48.062;7.474;2024-01-11T08:24:36;-8.00;99.90
42261;DHT22;27926;48.062;7.474;2024-01-11T08:27:01;-7.80;99.90
42261;DHT22;27926;48.062;7.474;2024-01-11T08:29:26;-7.70;99.90
42261;DHT22;27926;48.062;7.474;2024-01-11T08:31:50;-7.60;99.90
42261;DHT22;27926;48.062;7.474;2024-01-11T08:34:15;-7.50;99.90
42261;DHT22;27926;48.062;7.474;2024-01-11T08:36:39;-7.40;99.90
42261;DHT22;27926;48.062;7.474;2024-01-11T08:39:04;-7.30;99.90
42261;DHT22;27926;48.062;7.474;2024-01-11T08:41:30;-7.20;99.90
42261;DHT22;27926;48.062;7.474;2024-01-11T08:43:54;-7.00;99.90
42261;DHT22;27926;48.062;7.474;2024-01-11T08:46:25;-6.90;99.90
42261;DHT22;27926;48.062;7.474;2024-01-11T08:48:50;-6.70;99.90
42261;DHT22;27926;48.062;7.474;2024-01-11T08:51:14;-6.60;99.90
42261;DHT22;27926;48.062;7.474;2024-01-11T08:53:39;-6.30;99.90
42261;DHT22;27926;48.062;7.474;2024-01-11T08:56:04;-6.10;99.90
42261;DHT22;27926;48.062;7.474;2024-01-11T08:58:28;-5.90;99.90
42261;DHT22;27926;48.062;7.474;2024-01-11T09:00:53;-5.70;99.90
42261;DHT22;27926;48.062;7.474;2024-01-11T09:03:17;-5.50;99.90
42261;DHT22;27926;48.062;7.474;2024-01-11T09:05:42;-5.40;99.90
42261;DHT22;27926;48.062;7.474;2024-01-11T09:08:06;-5.30;99.90
42261;DHT22;27926;48.062;7.474;2024-01-11T09:10:31;-5.10;99.90
42261;DHT22;27926;48.062;7.474;2024-01-11T09:12:55;-4.90;99.90
42261;DHT22;27926;48.062;7.474;2024-01-11T09:15:20;-4.80;99.90
42261;DHT22;27926;48.062;7.474;2024-01-11T09:17:44;-4.60;99.90
42261;DHT22;27926;48.062;7.474;2024-01-11T09:20:09;-4.50;99.90
42261;DHT22;27926;48.062;7.474;2024-01-11T09:22:38;-4.40;99.90
42261;DHT22;27926;48.062;7.474;2024-01-11T09:25:03;-4.30;99.90
42261;DHT22;27926;48.062;7.474;2024-01-11T09:27:27;-4.10;99.90
42261;DHT22;27926;48.062;7.474;2024-01-11T09:29:52;-4.00;99.90
42261;DHT22;27926;48.062;7.474;2024-01-11T09:32:16;-3.90;99.90
42261;DHT22;27926;48.062;7.474;2024-01-11T09:34:41;-3.70;99.90
42261;DHT22;27926;48.062;7.474;2024-01-11T09:37:10;-2.10;99.90
42261;DHT22;27926;48.062;7.474;2024-01-11T09:39:34;-3.50;99.90
42261;DHT22;27926;48.062;7.474;2024-01-11T09:41:59;-3.40;99.90
42261;DHT22;27926;48.062;7.474;2024-01-11T09:44:27;-3.40;99.90
42261;DHT22;27926;48.062;7.474;2024-01-11T09:46:53;-3.30;99.90
42261;DHT22;27926;48.062;7.474;2024-01-11T09:49:17;-3.30;99.90
42261;DHT22;27926;48.062;7.474;2024-01-11T09:51:42;-3.20;99.90
42261;DHT22;27926;48.062;7.474;2024-01-11T09:54:07;-3.20;99.90
42261;DHT22;27926;48.062;7.474;2024-01-11T09:56:33;-3.10;99.90
42261;DHT22;27926;48.062;7.474;2024-01-11T09:58:59;-3.10;99.90
42261;DHT22;27926;48.062;7.474;2024-01-11T10:01:24;-1.10;99.90
42261;DHT22;27926;48.062;7.474;2024-01-11T10:03:49;-3.10;99.90
42261;DHT22;27926;48.062;7.474;2024-01-11T10:06:13;-3.10;99.90
42261;DHT22;27926;48.062;7.474;2024-01-11T10:08:39;-3.00;99.90
42261;DHT22;27926;48.062;7.474;2024-01-11T10:11:05;-3.00;99.90
42261;DHT22;27926;48.062;7.474;2024-01-11T10:13:30;-1.30;99.90
42261;DHT22;27926;48.062;7.474;2024-01-11T10:16:13;-1.20;99.90
42261;DHT22;27926;48.062;7.474;2024-01-11T10:18:38;-2.90;99.90
42261;DHT22;27926;48.062;7.474;2024-01-11T10:21:02;-2.80;99.90
42261;DHT22;27926;48.062;7.474;2024-01-11T10:23:27;-2.70;99.90
42261;DHT22;27926;48.062;7.474;2024-01-11T10:28:20;-2.60;99.90
42261;DHT22;27926;48.062;7.474;2024-01-11T10:30:48;-2.70;99.90
42261;DHT22;27926;48.062;7.474;2024-01-11T10:33:20;-2.60;99.90
42261;DHT22;27926;48.062;7.474;2024-01-11T10:35:48;-2.60;99.90
42261;DHT22;27926;48.062;7.474;2024-01-11T10:38:15;-2.60;99.90
42261;DHT22;27926;48.062;7.474;2024-01-11T10:40:44;-2.50;99.90
42261;DHT22;27926;48.062;7.474;2024-01-11T10:43:09;-2.50;99.90
42261;DHT22;27926;48.062;7.474;2024-01-11T10:45:37;-2.50;99.90
42261;DHT22;27926;48.062;7.474;2024-01-11T10:48:12;-2.40;99.90
42261;DHT22;27926;48.062;7.474;2024-01-11T10:50:37;-2.30;99.90
42261;DHT22;27926;48.062;7.474;2024-01-11T10:53:11;-2.20;99.90
42261;DHT22;27926;48.062;7.474;2024-01-11T10:55:36;-2.10;99.90
42261;DHT22;27926;48.062;7.474;2024-01-11T10:58:01;-2.10;99.90
42261;DHT22;27926;48.062;7.474;2024-01-11T11:00:27;-2.10;99.90
42261;DHT22;27926;48.062;7.474;2024-01-11T11:02:52;-2.00;99.90
42261;DHT22;27926;48.062;7.474;2024-01-11T11:05:18;-2.00;99.90
42261;DHT22;27926;48.062;7.474;2024-01-11T11:07:42;-1.90;99.90
42261;DHT22;27926;48.062;7.474;2024-01-11T11:10:07;-1.90;99.90
42261;DHT22;27926;48.062;7.474;2024-01-11T11:12:32;-1.90;99.90
42261;DHT22;27926;48.062;7.474;2024-01-11T11:14:58;-0.40;99.90
42261;DHT22;27926;48.062;7.474;2024-01-11T11:17:23;-1.70;99.90
42261;DHT22;27926;48.062;7.474;2024-01-11T11:19:48;-1.60;99.90
42261;DHT22;27926;48.062;7.474;2024-01-11T11:22:13;-1.50;99.90
42261;DHT22;27926;48.062;7.474;2024-01-11T11:24:39;-1.50;99.90
42261;DHT22;27926;48.062;7.474;2024-01-11T11:27:05;-1.60;99.90
42261;DHT22;27926;48.062;7.474;2024-01-11T11:29:29;-1.50;99.90
42261;DHT22;27926;48.062;7.474;2024-01-11T11:31:55;-1.60;99.90
42261;DHT22;27926;48.062;7.474;2024-01-11T11:34:31;-1.50;99.90
42261;DHT22;27926;48.062;7.474;2024-01-11T11:37:04;-1.50;99.90
42261;DHT22;27926;48.062;7.474;2024-01-11T11:39:28;-1.50;99.90
42261;DHT22;27926;48.062;7.474;2024-01-11T11:41:53;-0.90;99.90
42261;DHT22;27926;48.062;7.474;2024-01-11T11:44:20;-0.20;99.90
42261;DHT22;27926;48.062;7.474;2024-01-11T11:46:45;-1.40;99.90
42261;DHT22;27926;48.062;7.474;2024-01-11T11:49:10;-1.30;99.90
42261;DHT22;27926;48.062;7.474;2024-01-11T11:51:36;-1.30;99.90
42261;DHT22;27926;48.062;7.474;2024-01-11T11:54:03;-0.70;99.90
42261;DHT22;27926;48.062;7.474;2024-01-11T11:56:28;-1.20;99.90
42261;DHT22;27926;48.062;7.474;2024-01-11T11:58:52;-1.20;99.90
42261;DHT22;27926;48.062;7.474;2024-01-11T12:01:19;-1.20;99.90
42261;DHT22;27926;48.062;7.474;2024-01-11T12:03:44;-0.10;99.90
42261;DHT22;27926;48.062;7.474;2024-01-11T12:06:15;0.40;99.90
42261;DHT22;27926;48.062;7.474;2024-01-11T12:08:41;-1.10;99.90
42261;DHT22;27926;48.062;7.474;2024-01-11T12:11:05;-0.90;99.90
42261;DHT22;27926;48.062;7.474;2024-01-11T12:13:30;0.40;99.90
42261;DHT22;27926;48.062;7.474;2024-01-11T12:15:56;-1.10;99.90
42261;DHT22;27926;48.062;7.474;2024-01-11T12:18:20;0.10;99.90
42261;DHT22;27926;48.062;7.474;2024-01-11T12:20:45;-0.90;99.90
42261;DHT22;27926;48.062;7.474;2024-01-11T12:23:09;0.60;99.90
42261;DHT22;27926;48.062;7.474;2024-01-11T12:25:34;-0.80;99.90
42261;DHT22;27926;48.062;7.474;2024-01-11T12:27:59;-0.70;99.90
42261;DHT22;27926;48.062;7.474;2024-01-11T12:30:23;0.70;99.90
42261;DHT22;27926;48.062;7.474;2024-01-11T12:32:48;0.80;99.90
42261;DHT22;27926;48.062;7.474;2024-01-11T12:35:13;-0.70;99.90
42261;DHT22;27926;48.062;7.474;2024-01-11T12:37:37;0.80;99.90
42261;DHT22;27926;48.062;7.474;2024-01-11T12:40:02;-0.60;99.90
42261;DHT22;27926;48.062;7.474;2024-01-11T12:42:27;-0.60;99.90
42261;DHT22;27926;48.062;7.474;2024-01-11T12:44:52;-0.60;99.90
42261;DHT22;27926;48.062;7.474;2024-01-11T12:47:17;1.10;99.90
42261;DHT22;27926;48.062;7.474;2024-01-11T12:49:45;1.10;99.90
42261;DHT22;27926;48.062;7.474;2024-01-11T12:52:16;-0.50;99.90
42261;DHT22;27926;48.062;7.474;2024-01-11T12:54:41;-0.40;99.90
42261;DHT22;27926;48.062;7.474;2024-01-11T12:57:07;-0.40;99.90
42261;DHT22;27926;48.062;7.474;2024-01-11T12:59:31;-0.40;99.90
42261;DHT22;27926;48.062;7.474;2024-01-11T13:01:56;1.50;99.90
42261;DHT22;27926;48.062;7.474;2024-01-11T13:04:21;1.00;99.90
42261;DHT22;27926;48.062;7.474;2024-01-11T13:06:45;0.40;99.90
42261;DHT22;27926;48.062;7.474;2024-01-11T13:09:10;-0.10;99.90
42261;DHT22;27926;48.062;7.474;2024-01-11T13:11:34;-0.30;99.90
42261;DHT22;27926;48.062;7.474;2024-01-11T13:13:59;0.10;99.90
42261;DHT22;27926;48.062;7.474;2024-01-11T13:16:25;-0.20;99.90
42261;DHT22;27926;48.062;7.474;2024-01-11T13:18:50;-0.30;99.90
42261;DHT22;27926;48.062;7.474;2024-01-11T13:21:14;1.20;99.90
42261;DHT22;27926;48.062;7.474;2024-01-11T13:23:39;-0.20;99.90
42261;DHT22;27926;48.062;7.474;2024-01-11T13:26:04;-0.20;99.90
42261;DHT22;27926;48.062;7.474;2024-01-11T13:28:28;-0.20;99.90
42261;DHT22;27926;48.062;7.474;2024-01-11T13:30:53;0.70;99.90
42261;DHT22;27926;48.062;7.474;2024-01-11T13:33:17;1.80;99.90
42261;DHT22;27926;48.062;7.474;2024-01-11T13:35:46;1.00;99.90
42261;DHT22;27926;48.062;7.474;2024-01-11T13:38:11;0.10;99.90
42261;DHT22;27926;48.062;7.474;2024-01-11T13:40:35;-0.10;99.90
42261;DHT22;27926;48.062;7.474;2024-01-11T13:43:00;0.70;99.90
42261;DHT22;27926;48.062;7.474;2024-01-11T13:45:26;-0.10;99.90
42261;DHT22;27926;48.062;7.474;2024-01-11T13:47:51;-0.10;99.90
42261;DHT22;27926;48.062;7.474;2024-01-11T13:50:15;1.10;99.90
42261;DHT22;27926;48.062;7.474;2024-01-11T13:52:41;-0.10;99.90
42261;DHT22;27926;48.062;7.474;2024-01-11T13:55:06;0.00;99.90
42261;DHT22;27926;48.062;7.474;2024-01-11T13:57:31;0.00;99.90
42261;DHT22;27926;48.062;7.474;2024-01-11T13:59:56;-0.10;99.90
42261;DHT22;27926;48.062;7.474;2024-01-11T14:02:20;0.00;99.90
42261;DHT22;27926;48.062;7.474;2024-01-11T14:04:45;-0.10;99.90
42261;DHT22;27926;48.062;7.474;2024-01-11T14:07:10;0.80;99.90
42261;DHT22;27926;48.062;7.474;2024-01-11T14:09:34;1.40;99.90
42261;DHT22;27926;48.062;7.474;2024-01-11T14:11:59;-0.10;99.90
42261;DHT22;27926;48.062;7.474;2024-01-11T14:14:23;-0.10;99.90
42261;DHT22;27926;48.062;7.474;2024-01-11T14:16:48;1.00;99.90
42261;DHT22;27926;48.062;7.474;2024-01-11T14:19:12;0.00;99.90
42261;DHT22;27926;48.062;7.474;2024-01-11T14:21:37;0.80;99.90
42261;DHT22;27926;48.062;7.474;2024-01-11T14:24:02;-0.10;99.90
42261;DHT22;27926;48.062;7.474;2024-01-11T14:26:27;-0.10;99.90
42261;DHT22;27926;48.062;7.474;2024-01-11T14:28:51;0.00;99.90
42261;DHT22;27926;48.062;7.474;2024-01-11T14:31:16;1.40;99.90
42261;DHT22;27926;48.062;7.474;2024-01-11T14:33:41;0.00;99.90
42261;DHT22;27926;48.062;7.474;2024-01-11T14:36:05;0.00;99.90
42261;DHT22;27926;48.062;7.474;2024-01-11T14:38:30;0.00;99.90
42261;DHT22;27926;48.062;7.474;2024-01-11T14:40:55;1.20;99.90
42261;DHT22;27926;48.062;7.474;2024-01-11T14:43:20;1.80;99.90
42261;DHT22;27926;48.062;7.474;2024-01-11T14:45:46;0.00;99.90
42261;DHT22;27926;48.062;7.474;2024-01-11T14:48:10;1.50;99.90
42261;DHT22;27926;48.062;7.474;2024-01-11T14:50:36;-0.10;99.90
42261;DHT22;27926;48.062;7.474;2024-01-11T14:53:01;0.80;99.90
42261;DHT22;27926;48.062;7.474;2024-01-11T14:55:27;-0.10;99.90
42261;DHT22;27926;48.062;7.474;2024-01-11T14:57:52;1.80;99.90
42261;DHT22;27926;48.062;7.474;2024-01-11T15:00:16;-0.10;99.90
42261;DHT22;27926;48.062;7.474;2024-01-11T15:02:41;-0.10;99.90
42261;DHT22;27926;48.062;7.474;2024-01-11T15:05:06;-0.20;99.90
42261;DHT22;27926;48.062;7.474;2024-01-11T15:07:30;-0.20;99.90
42261;DHT22;27926;48.062;7.474;2024-01-11T15:09:55;-0.30;99.90
42261;DHT22;27926;48.062;7.474;2024-01-11T15:12:19;0.60;99.90
42261;DHT22;27926;48.062;7.474;2024-01-11T15:14:46;-0.40;99.90
42261;DHT22;27926;48.062;7.474;2024-01-11T15:17:10;-0.40;99.90
42261;DHT22;27926;48.062;7.474;2024-01-11T15:19:35;-0.50;99.90
42261;DHT22;27926;48.062;7.474;2024-01-11T15:21:59;-0.60;99.90
42261;DHT22;27926;48.062;7.474;2024-01-11T15:24:24;-0.60;99.90